Kuusiku, Estonia

2:11 AM EET on December 08, 2016 (GMT +0200)
Oruniidu | | Change Station

Elev 197 ft 59.04 °N, 24.53 °E | Updated 1 second ago

Light Rain
Light Rain
37.8 °F
Feels Like 38 °F
N
0.9
Wind Variable Wind from South
Gusts 4.9 mph

Today
High -- | Low -- °F
--% Chance of Precip.
Yesterday
High -- | Low -- °F
Precip. -- in
Pressure 29.65 in
Visibility 6.2 miles
Clouds Overcast 500 ft
Windchill 38 °F
Dew Point 36 °F
Humidity 95%
Rainfall 0.13 in
Snow Depth Not available.
9:00 AM 3:25 PM
First Quarter, 57% visible
METAR EEEI 072350Z 18008KT 9999 -RA OVC005 03/03 Q1004
Pressure 29.65 in
Visibility 6.2 miles
Clouds Overcast 500 ft
Windchill 38 °F
Dew Point 36 °F
Humidity 95%
Rainfall 0.13 in
Snow Depth Not available.
9:00 AM 3:25 PM
First Quarter, 57% visible
METAR EEEI 072350Z 18008KT 9999 -RA OVC005 03/03 Q1004

10-Day Weather Forecast

×

Almanac

Astronomy

Dec. 08, 2016 Rise Set
Actual Time
Civil Twilight
Nautical Twilight
Astronomical Twilight
Moon
Length of Visible Light
Length of Day
Tomorrow will be .
, % of the Moon is Illuminated

Today's Extremes

Country Highs Country Lows

Community

WunderPhotos

Upload Photos

1,956,221 photos uploaded!

WunderBlog® & News

Nearby

Air Quality

  Air Quality AQ Index Pollutant
Not available.

Snow Depth

Station Depth Elevation

Earthquake Activity

City Distance Mag. Time & Date
Minimum magnitude displayed is 2.5.

Coastal Water Temperatures

Place Temperature

Stations

Nearby Weather Stations

Station Location Temp. Windchill Dew Point Humidity Wind Precip. Elev Updated Type